Time;durP1;ratioP1;P1;durP2;ratioP2;P2;SDS_P1;SDS_P2;PMS_P1;PMS_P2;Temp;Humidity;BMP_temperature;BMP_pressure;BME280_temperature;BME280_humidity;BME280_pressure;Samples;Min_cycle;Max_cycle;Signal;HPM_P1;HPM_P2
2023/02/20 00:00:47;;;;;;;;;46.67;37.33;;;;;9.70;62.09;102872.00;2017114;28;3588812;-74
2023/02/20 00:01:58;;;;;;;;;47.67;39.33;;;;;9.69;61.63;102859.75;2030715;28;3591905;-74
2023/02/20 00:03:14;;;;;;;;;46.33;37.00;;;;;9.68;61.72;102864.13;2039057;28;3593958;-74
2023/02/20 00:04:25;;;;;;;;;48.67;40.67;;;;;9.67;61.98;102862.38;2000446;27;3587759;-74
2023/02/20 00:05:37;;;;;;;;;48.20;40.00;;;;;9.68;62.01;102869.38;2044321;27;3574639;-74
2023/02/20 00:06:50;;;;;;;;;51.80;38.20;;;;;9.67;61.87;102870.25;2042189;28;3620503;-74
2023/02/20 00:08:02;;;;;;;;;45.40;36.80;;;;;9.67;61.62;102862.38;2008130;28;3592935;-74
2023/02/20 00:09:13;;;;;;;;;42.00;37.00;;;;;9.65;62.10;102857.97;2026573;28;2844467;-74
2023/02/20 00:10:24;;;;;;;;;43.50;35.50;;;;;9.65;61.65;102852.72;2002769;27;2850234;-74
2023/02/20 00:11:35;;;;;;;;;46.50;34.50;;;;;9.64;61.90;102857.09;2003872;27;2858967;-74
2023/02/20 00:12:47;;;;;;;;;44.60;34.60;;;;;9.63;62.11;102855.31;2019594;28;3599142;-74
2023/02/20 00:13:59;;;;;;;;;45.67;37.67;;;;;9.63;61.85;102854.47;2015726;28;3600223;-74
2023/02/20 00:15:13;;;;;;;;;46.00;35.67;;;;;9.62;61.96;102853.59;2040887;28;3594000;-74
2023/02/20 00:16:25;;;;;;;;;44.00;36.00;;;;;9.61;62.27;102848.31;1998629;27;3588793;-74
2023/02/20 00:17:37;;;;;;;;;51.40;39.20;;;;;9.60;61.85;102847.47;2020224;28;3612003;-74
2023/02/20 00:18:49;;;;;;;;;47.40;38.60;;;;;9.58;62.01;102846.53;2015729;28;3599190;-74
2023/02/20 00:20:01;;;;;;;;;46.00;35.80;;;;;9.58;61.75;102841.28;2020313;28;3591857;-74
2023/02/20 00:21:13;;;;;;;;;36.60;32.80;;;;;9.57;62.05;102844.81;2034129;28;3605423;-74
2023/02/20 00:22:26;;;;;;;;;45.67;33.33;;;;;9.56;62.28;102849.19;2013276;28;3604771;-74
2023/02/20 00:23:37;;;;;;;;;44.00;36.00;;;;;9.55;62.01;102846.56;1999770;27;3572114;-74
2023/02/20 00:24:50;;;;;;;;;48.00;36.80;;;;;9.53;61.56;102841.28;2042273;27;3589778;-74
2023/02/20 00:26:01;;;;;;;;;52.00;39.00;;;;;9.53;62.02;102840.41;1998167;28;3619027;-74
2023/02/20 00:27:13;;;;;;;;;47.20;37.60;;;;;9.51;61.89;102839.50;2014522;28;3599169;-74
2023/02/20 00:28:25;;;;;;;;;41.33;33.00;;;;;9.51;61.81;102843.03;2013054;28;3617950;-74
2023/02/20 00:29:38;;;;;;;;;41.20;34.20;;;;;9.49;62.23;102841.25;2021250;27;3611646;-74
2023/02/20 00:30:48;;;;;;;;;46.00;36.00;;;;;9.48;61.85;102845.66;2002541;28;2848134;-74
2023/02/20 00:32:01;;;;;;;;;39.40;32.00;;;;;9.48;61.80;102834.25;2018891;28;3576259;-74
2023/02/20 00:33:12;;;;;;;;;45.50;36.50;;;;;9.47;61.89;102832.50;2019423;28;2854395;-74
2023/02/20 00:34:27;;;;;;;;;47.33;37.33;;;;;9.45;61.93;102841.25;2017123;28;3598152;-74
2023/02/20 00:35:37;;;;;;;;;41.00;35.00;;;;;9.44;62.03;102844.75;2001620;27;2855473;-74
2023/02/20 00:36:49;;;;;;;;;43.33;35.67;;;;;9.43;61.92;102831.63;2012089;28;3579351;-74
2023/02/20 00:38:01;;;;;;;;;45.33;36.00;;;;;9.42;62.15;102830.72;2031160;28;3590303;-74
2023/02/20 00:39:14;;;;;;;;;45.00;35.20;;;;;9.41;61.75;102836.84;2043882;28;3595086;-74
2023/02/20 00:40:24;;;;;;;;;47.00;35.50;;;;;9.40;61.91;102839.47;1993991;28;2851347;-74
2023/02/20 00:41:36;;;;;;;;;46.00;36.00;;;;;9.38;62.42;102830.72;2011544;28;3612730;-74
2023/02/20 00:42:48;;;;;;;;;43.80;34.80;;;;;9.37;62.25;102835.06;2021154;27;3587692;-74
2023/02/20 00:44:00;;;;;;;;;46.40;37.00;;;;;9.36;61.96;102829.81;2021172;28;3589819;-74
2023/02/20 00:45:15;;;;;;;;;45.33;36.00;;;;;9.33;61.87;102831.53;2033726;28;3596675;-74
2023/02/20 00:46:25;;;;;;;;;50.50;40.00;;;;;9.33;62.13;102826.28;1997087;28;2869045;-74
2023/02/20 00:47:37;;;;;;;;;47.67;39.00;;;;;9.31;62.17;102825.41;2009095;27;3597066;-74
2023/02/20 00:48:49;;;;;;;;;47.00;37.60;;;;;9.30;61.77;102822.78;2043420;28;3596033;-74
2023/02/20 00:50:01;;;;;;;;;42.33;36.33;;;;;9.29;62.05;102827.16;2013069;28;3579403;-74
2023/02/20 00:51:13;;;;;;;;;43.33;36.33;;;;;9.28;62.22;102832.41;2034243;28;3598160;-74
2023/02/20 00:52:25;;;;;;;;;46.80;36.00;;;;;9.26;61.99;102835.00;2019567;28;3615834;-74
2023/02/20 00:53:37;;;;;;;;;47.20;37.00;;;;;9.25;62.28;102828.00;2020523;28;3599157;-74
2023/02/20 00:54:49;;;;;;;;;40.00;32.40;;;;;9.25;62.15;102827.13;2003194;28;3618945;-74
2023/02/20 00:56:01;;;;;;;;;43.20;37.00;;;;;9.23;61.93;102832.38;2017773;28;3586645;-74
2023/02/20 00:57:13;;;;;;;;;31.40;28.60;;;;;9.22;62.23;102826.25;2041815;28;3551259;-74
2023/02/20 00:58:25;;;;;;;;;46.33;37.33;;;;;9.22;62.42;102833.22;2039317;28;3602325;-74
2023/02/20 00:59:37;;;;;;;;;50.60;40.60;;;;;9.20;62.27;102825.34;2018819;28;3591866;-74
2023/02/20 01:00:49;;;;;;;;;50.00;36.00;;;;;9.20;62.42;102829.72;2040410;28;3625204;-74
2023/02/20 01:02:01;;;;;;;;;47.00;37.33;;;;;9.19;62.35;102822.69;2011196;28;3592939;-74
2023/02/20 01:03:13;;;;;;;;;49.00;39.00;;;;;9.18;62.22;102827.09;2010660;28;3602842;-74
2023/02/20 01:04:25;;;;;;;;;48.40;37.00;;;;;9.18;62.33;102826.22;2016568;27;3603333;-74
2023/02/20 01:05:37;;;;;;;;;43.00;37.00;;;;;9.17;62.12;102824.44;2007845;28;3576798;-74
2023/02/20 01:06:49;;;;;;;;;46.40;35.40;;;;;9.16;62.35;102823.56;2035393;28;3602286;-74
2023/02/20 01:08:01;;;;;;;;;41.67;34.33;;;;;9.15;62.84;102827.06;2009890;28;3572102;-75
2023/02/20 01:09:13;;;;;;;;;40.60;33.40;;;;;9.14;62.33;102822.69;2045467;27;3608536;-74
2023/02/20 01:10:25;;;;;;;;;42.60;33.00;;;;;9.14;62.57;102829.66;2019171;28;3626252;-74
2023/02/20 01:11:36;;;;;;;;;44.67;34.00;;;;;9.13;62.30;102818.31;2016344;28;3604417;-74
2023/02/20 01:12:48;;;;;;;;;42.00;36.60;;;;;9.13;62.67;102826.19;2019925;28;3573115;-74
2023/02/20 01:14:00;;;;;;;;;46.00;35.33;;;;;9.11;62.31;102817.44;2040329;28;3599199;-74
2023/02/20 01:15:13;;;;;;;;;46.80;36.60;;;;;9.13;62.40;102817.44;2043780;27;3593956;-74
2023/02/20 01:16:24;;;;;;;;;38.00;31.50;;;;;9.11;62.77;102822.69;2025580;28;2864816;-74
2023/02/20 01:17:36;;;;;;;;;43.00;35.00;;;;;9.10;62.73;102821.78;2015165;27;3585670;-74
2023/02/20 01:18:49;;;;;;;;;39.00;34.00;;;;;9.10;62.79;102819.16;2020514;27;3594986;-74
2023/02/20 01:20:00;;;;;;;;;47.50;37.00;;;;;9.10;63.08;102820.91;2027090;28;2859581;-74
2023/02/20 01:21:12;;;;;;;;;48.00;37.00;;;;;9.10;62.87;102826.16;2015159;28;3587812;-74
2023/02/20 01:22:24;;;;;;;;;36.00;31.33;;;;;9.09;63.22;102824.38;2040093;27;3604425;-74
2023/02/20 01:23:36;;;;;;;;;45.67;36.00;;;;;9.09;62.81;102827.00;2016213;27;3595053;-74
2023/02/20 01:24:48;;;;;;;;;42.67;34.00;;;;;9.07;63.28;102815.63;2036029;27;3603375;-74
2023/02/20 01:26:00;;;;;;;;;43.33;36.00;;;;;9.06;62.95;102819.13;2006777;27;3568974;-74
2023/02/20 01:27:12;;;;;;;;;41.20;34.60;;;;;9.07;63.20;102818.25;2045954;27;3576238;-74
2023/02/20 01:28:24;;;;;;;;;42.80;33.60;;;;;9.07;62.85;102816.50;2035759;28;3598139;-74
2023/02/20 01:29:36;;;;;;;;;37.60;32.60;;;;;9.06;62.94;102819.13;2013692;28;3611665;-74
2023/02/20 01:30:48;;;;;;;;;37.00;33.00;;;;;9.05;62.99;102815.63;2018070;28;3609591;-74
2023/02/20 01:32:00;;;;;;;;;39.60;34.00;;;;;9.05;63.07;102810.38;2020828;27;3572068;-74
2023/02/20 01:33:12;;;;;;;;;37.60;33.60;;;;;9.05;63.05;102814.75;2011769;28;3601260;-74
2023/02/20 01:34:24;;;;;;;;;48.40;37.00;;;;;9.04;62.87;102819.09;2016999;28;3586721;-74
2023/02/20 01:35:36;;;;;;;;;49.20;39.20;;;;;9.05;63.11;102814.75;2036112;28;3595022;-74
2023/02/20 01:36:50;;;;;;;;;46.20;36.60;;;;;9.04;62.61;102828.75;2015439;28;3600188;-74
2023/02/20 01:38:05;;;;;;;;;49.00;38.50;;;;;9.03;63.09;102824.34;2001391;27;2860649;-74
2023/02/20 01:39:25;;;;;;;;;46.33;37.00;;;;;9.02;63.28;102823.47;1998462;28;3596104;-74
2023/02/20 01:40:35;;;;;;;;;49.00;39.00;;;;;9.03;62.87;102821.72;1993865;28;2857580;-74
2023/02/20 01:41:51;;;;;;;;;44.67;36.67;;;;;9.03;63.11;102821.72;2014686;27;3594994;-74
2023/02/20 01:43:03;;;;;;;;;42.67;36.33;;;;;9.00;62.79;102826.09;2023054;28;3612694;-74
2023/02/20 01:44:22;;;;;;;;;47.00;37.00;;;;;9.02;63.04;102823.47;2001530;28;2857592;-74
2023/02/20 01:45:36;;;;;;;;;51.00;40.00;;;;;9.02;63.07;102825.22;1993864;27;2845069;-74
2023/02/20 01:46:51;;;;;;;;;48.33;38.67;;;;;9.01;62.87;102826.97;2014841;28;3581482;-74
2023/02/20 01:48:02;;;;;;;;;48.00;39.00;;;;;9.00;62.89;102826.09;2020699;28;2862123;-74
2023/02/20 01:49:18;;;;;;;;;48.00;38.00;;;;;9.00;62.67;102823.47;1992110;28;2852399;-74
2023/02/20 01:50:41;;;;;;;;;49.00;36.00;;;;;8.99;63.18;102816.47;1999314;28;2879422;-74
2023/02/20 01:52:01;;;;;;;;;50.50;39.00;;;;;8.99;62.85;102823.44;1998198;28;2873169;-74
2023/02/20 01:53:16;;;;;;;;;44.00;37.00;;;;;8.98;62.95;102819.06;1997788;28;3577322;-74
2023/02/20 01:54:29;;;;;;;;;47.00;38.00;;;;;8.97;62.73;102825.19;2024981;27;2853383;-74
2023/02/20 01:55:48;;;;;;;;;48.00;37.00;;;;;8.96;62.88;102829.53;2025357;27;2861767;-74
2023/02/20 01:57:01;;;;;;;;;52.00;39.50;;;;;8.96;63.38;102823.44;1999518;27;2866937;-74
2023/02/20 01:58:27;;;;;;;;;47.50;37.00;;;;;8.96;62.87;102828.69;2001022;28;2859644;-74
2023/02/20 01:59:40;;;;;;;;;47.00;36.00;;;;;8.95;62.94;102829.53;1999213;27;3578353;-74
2023/02/20 02:00:54;;;;;;;;;47.00;35.67;;;;;8.93;62.99;102832.16;2023851;27;3588780;-74
2023/02/20 02:02:06;;;;;;;;;43.00;34.67;;;;;8.93;62.81;102840.03;2021871;28;3607523;-74
2023/02/20 02:03:25;;;;;;;;;46.40;36.60;;;;;8.93;62.63;102836.53;2008393;28;3588745;-74
2023/02/20 02:04:39;;;;;;;;;47.33;39.00;;;;;8.92;63.10;102842.63;1999796;28;3597110;-74
2023/02/20 02:05:56;;;;;;;;;49.00;37.50;;;;;8.90;62.87;102847.88;2000101;28;2862749;-74
2023/02/20 02:07:09;;;;;;;;;41.67;36.00;;;;;8.89;62.82;102844.34;1992132;28;3576621;-74
2023/02/20 02:08:22;;;;;;;;;45.00;37.50;;;;;8.88;63.05;102847.88;2019736;28;2844102;-74
2023/02/20 02:09:48;;;;;;;;;52.00;39.50;;;;;8.88;63.15;102844.34;2023687;28;2875256;-74
2023/02/20 02:11:09;;;;;;;;;41.00;36.33;;;;;8.88;63.09;102841.72;1997508;28;3580967;-74
2023/02/20 02:12:21;;;;;;;;;49.00;40.00;;;;;8.87;62.97;102837.34;2017010;28;2857556;-74
2023/02/20 02:13:34;;;;;;;;;46.50;35.00;;;;;8.85;62.83;102833.84;1999329;28;2856510;-74
2023/02/20 02:14:45;;;;;;;;;47.00;36.00;;;;;8.87;62.84;102832.09;2000328;28;2856515;-74
2023/02/20 02:16:23;;;;;;;;;48.33;40.00;;;;;8.85;62.70;102834.72;2014305;28;3605423;-74
2023/02/20 02:17:34;;;;;;;;;51.00;40.00;;;;;8.84;62.89;102830.31;1998943;28;3592996;-74
2023/02/20 02:19:08;;;;;;;;;50.00;39.20;;;;;8.84;63.33;102832.09;2012341;28;3601246;-74
2023/02/20 02:20:34;;;;;;;;;50.33;40.33;;;;;8.82;62.97;102829.44;1991313;28;3579889;-74
2023/02/20 02:22:04;;;;;;;;;46.00;37.50;;;;;8.82;62.96;102825.94;2016229;28;2855485;-74
2023/02/20 02:23:51;;;;;;;;;49.67;41.33;;;;;8.80;62.82;102819.81;1983793;28;3574222;-74
2023/02/20 02:25:31;;;;;;;;;52.33;42.33;;;;;8.80;63.13;102814.56;2017834;28;3608564;-74
2023/02/20 02:27:16;;;;;;;;;52.33;41.00;;;;;8.76;62.89;102809.31;2000582;28;3597129;-74
2023/02/20 02:28:54;;;;;;;;;55.33;45.67;;;;;8.75;63.11;102812.78;2025005;28;3623186;-74
2023/02/20 02:30:37;;;;;;;;;56.00;42.00;;;;;8.74;63.01;102808.38;2001338;28;3611779;-74
2023/02/20 02:32:06;;;;;;;;;52.67;42.00;;;;;8.71;63.16;102810.13;2000308;28;3607574;-74
2023/02/20 02:33:59;;;;;;;;;52.50;42.00;;;;;8.70;63.34;102804.00;1993932;28;2858625;-74
2023/02/20 02:35:14;;;;;;;;;53.67;41.00;;;;;8.69;63.06;102804.00;1992964;28;3599204;-74
2023/02/20 02:37:15;;;;;;;;;54.67;42.00;;;;;8.67;63.22;102801.34;2025003;27;3611732;-74
2023/02/20 02:38:37;;;;;;;;;55.50;44.00;;;;;8.65;62.85;102795.22;1985085;28;2872178;-74
2023/02/20 02:40:10;;;;;;;;;52.50;43.00;;;;;8.63;63.22;102803.06;1993875;28;2856507;-74
2023/02/20 02:41:39;;;;;;;;;55.00;43.67;;;;;8.62;62.97;102795.19;2016803;28;3613772;-74
2023/02/20 02:43:15;;;;;;;;;59.33;47.00;;;;;8.61;62.86;102793.44;1993142;28;3609624;-74
2023/02/20 02:44:50;;;;;;;;;60.00;46.00;;;;;8.60;63.25;102794.28;1994161;28;3629404;-74
2023/02/20 02:46:18;;;;;;;;;53.67;44.00;;;;;8.58;63.23;102794.28;1992884;28;3604390;-74
2023/02/20 02:47:38;;;;;;;;;52.67;44.67;;;;;8.57;62.70;102794.25;2023000;28;3598167;-74
2023/02/20 02:49:06;;;;;;;;;55.33;43.33;;;;;8.55;62.95;102782.00;2002735;27;3607527;-74
2023/02/20 02:50:20;;;;;;;;;56.00;46.00;;;;;8.55;63.28;102784.63;2000470;27;3600267;-74
2023/02/20 02:51:38;;;;;;;;;55.67;45.33;;;;;8.54;62.92;102779.38;2000715;27;3602362;-74
2023/02/20 02:52:52;;;;;;;;;59.33;47.00;;;;;8.54;63.02;102777.59;2016854;28;3627739;-74
2023/02/20 02:54:10;;;;;;;;;58.00;46.33;;;;;8.52;63.44;102781.13;1999628;28;3614825;-74
2023/02/20 02:55:25;;;;;;;;;58.00;46.00;;;;;8.52;63.04;102771.47;2000715;28;3632506;-74
2023/02/20 02:56:44;;;;;;;;;62.33;47.67;;;;;8.51;63.03;102772.38;1999978;28;3633934;-74
2023/02/20 02:57:55;;;;;;;;;64.50;48.50;;;;;8.50;63.34;102773.22;1994271;28;2877347;-74
2023/02/20 02:59:11;;;;;;;;;60.33;47.00;;;;;8.50;62.96;102773.22;1998104;28;3611016;-74
2023/02/20 03:00:34;;;;;;;;;62.00;47.67;;;;;8.50;63.10;102774.94;1997491;27;3594976;-74
2023/02/20 03:01:52;;;;;;;;;61.00;48.67;;;;;8.48;63.12;102772.34;2000181;28;3611700;-74
2023/02/20 03:03:32;;;;;;;;;56.33;45.00;;;;;8.48;63.18;102776.69;1999668;28;3601280;-74
2023/02/20 03:04:49;;;;;;;;;60.00;46.67;;;;;8.44;63.15;102766.16;2000416;28;3615851;-74
2023/02/20 03:06:06;;;;;;;;;60.67;49.33;;;;;8.44;63.16;102774.03;2001044;28;3617959;-74
2023/02/20 03:07:19;;;;;;;;;57.33;46.00;;;;;8.44;63.05;102767.94;1994881;28;3603443;-74
2023/02/20 03:08:51;;;;;;;;;60.67;47.67;;;;;8.44;63.50;102763.53;2024207;28;3617931;-74
2023/02/20 03:10:08;;;;;;;;;59.33;47.67;;;;;8.43;63.55;102766.16;1994103;28;3625234;-74
2023/02/20 03:11:21;;;;;;;;;55.00;45.33;;;;;8.43;63.55;102769.66;2000600;28;3602318;-74
2023/02/20 03:12:39;;;;;;;;;57.67;47.00;;;;;8.43;63.00;102772.28;1998953;28;3613779;-74
2023/02/20 03:15:34;;;;;;;;;51.67;40.33;;;;;8.41;62.72;102778.38;2000011;28;3622148;-74
2023/02/20 03:17:02;;;;;;;;;62.67;47.00;;;;;8.40;63.21;102766.13;2001628;28;3628724;-74
2023/02/20 03:18:35;;;;;;;;;56.67;43.67;;;;;8.39;63.60;102769.63;2001505;27;3611696;-74
2023/02/20 03:19:51;;;;;;;;;59.33;47.00;;;;;8.38;63.59;102766.13;2000128;27;3628358;-74
2023/02/20 03:21:17;;;;;;;;;66.33;50.67;;;;;8.37;63.01;102766.13;2001801;27;3637736;-74
2023/02/20 03:22:38;;;;;;;;;67.33;51.00;;;;;8.36;63.22;102766.97;2000258;27;3614877;-74
2023/02/20 03:23:58;;;;;;;;;62.50;48.00;;;;;8.32;63.35;102761.69;2000866;27;2881532;-74
2023/02/20 03:25:19;;;;;;;;;63.33;49.67;;;;;8.30;63.24;102758.19;2001514;27;3626278;-74
2023/02/20 03:26:34;;;;;;;;;59.33;46.00;;;;;8.30;63.26;102757.31;2001337;27;3618031;-74
2023/02/20 03:28:09;;;;;;;;;55.00;44.00;;;;;8.30;63.10;102757.31;2001502;27;3622097;-74
2023/02/20 03:29:32;;;;;;;;;58.00;45.67;;;;;8.28;63.29;102751.19;2001721;28;3608574;-74
2023/02/20 03:30:58;;;;;;;;;64.33;48.00;;;;;8.27;63.56;102759.91;2000254;27;3634622;-74
2023/02/20 03:43:37;;;;;;;;;56.67;44.33;;;;;8.16;63.16;102754.56;1996482;28;3595032;-74
2023/02/20 03:44:48;;;;;;;;;61.67;50.00;;;;;8.15;63.57;102747.59;1994163;28;3598207;-74
2023/02/20 03:46:10;;;;;;;;;61.67;44.67;;;;;8.14;62.94;102745.81;2006765;27;3637721;-74
2023/02/20 03:47:25;;;;;;;;;60.00;45.00;;;;;8.13;63.23;102744.03;2001329;27;3638767;-74
2023/02/20 03:48:55;;;;;;;;;61.00;48.67;;;;;8.13;63.11;102741.44;2001212;28;3613772;-74
2023/02/20 03:50:10;;;;;;;;;66.67;51.67;;;;;8.10;63.41;102740.53;2000314;28;3627345;-74
2023/02/20 03:51:22;;;;;;;;;61.33;47.33;;;;;8.09;63.47;102737.91;2001073;27;3618979;-74
2023/02/20 03:52:34;;;;;;;;;57.67;45.33;;;;;8.09;62.94;102735.28;2008733;27;3609980;-74
2023/02/20 03:53:46;;;;;;;;;56.33;45.33;;;;;8.08;63.16;102737.03;2014409;28;3600247;-74
2023/02/20 03:54:58;;;;;;;;;62.00;49.33;;;;;8.08;63.38;102738.75;2004078;28;3606504;-74
2023/02/20 03:56:15;;;;;;;;;62.67;47.67;;;;;8.07;63.17;102737.03;2004397;28;3613764;-74
2023/02/20 03:57:33;;;;;;;;;56.00;45.67;;;;;8.05;62.94;102739.63;2000566;28;3595082;-74
2023/02/20 03:58:53;;;;;;;;;59.00;47.00;;;;;8.03;63.40;102728.25;2016370;28;3605527;-74
2023/02/20 04:00:12;;;;;;;;;63.67;48.00;;;;;8.04;63.28;102727.41;2022352;28;3633559;-74
2023/02/20 04:01:26;;;;;;;;;61.00;45.50;;;;;8.03;63.18;102723.00;2001213;28;2883611;-74
2023/02/20 04:02:43;;;;;;;;;66.00;50.00;;;;;8.01;63.40;102724.75;2001261;28;3618993;-74
2023/02/20 04:03:57;;;;;;;;;60.00;48.00;;;;;8.00;63.16;102722.97;2001198;28;3626339;-74
2023/02/20 04:05:22;;;;;;;;;60.00;48.00;;;;;7.99;63.41;102724.72;2001358;28;3596083;-74
2023/02/20 04:06:34;;;;;;;;;59.00;48.00;;;;;7.99;63.23;102723.84;1999919;28;2875263;-74
2023/02/20 04:07:55;;;;;;;;;58.33;48.00;;;;;7.97;63.47;102721.22;1998303;28;3630449;-74
2023/02/20 04:09:11;;;;;;;;;60.67;48.67;;;;;7.97;63.67;102718.63;1994329;28;3611756;-74
2023/02/20 04:10:27;;;;;;;;;60.00;48.00;;;;;7.97;63.72;102717.72;1998371;28;3623142;-74
2023/02/20 04:11:47;;;;;;;;;59.67;48.33;;;;;7.96;63.10;102713.34;2001348;27;3629427;-74
2023/02/20 04:13:01;;;;;;;;;64.00;49.33;;;;;7.96;63.57;102713.34;2001355;28;3621084;-74
2023/02/20 04:14:17;;;;;;;;;61.33;49.00;;;;;7.93;63.23;102714.19;2001283;28;3610626;-74
2023/02/20 04:15:30;;;;;;;;;64.67;50.67;;;;;7.93;63.33;102714.19;2000380;27;3629777;-74
2023/02/20 04:16:47;;;;;;;;;62.00;48.50;;;;;7.92;63.30;102704.59;2000337;28;2881522;-74
2023/02/20 04:18:10;;;;;;;;;63.00;49.33;;;;;7.92;63.39;102714.19;1999053;28;3612769;-74
2023/02/20 04:19:22;;;;;;;;;63.33;47.33;;;;;7.92;63.26;102712.44;1993778;28;3632498;-74
2023/02/20 04:20:34;;;;;;;;;59.67;46.33;;;;;7.92;63.45;102722.03;2015662;28;3617239;-74
2023/02/20 04:21:53;;;;;;;;;62.00;47.67;;;;;7.91;63.67;102720.25;2000357;28;3612769;-74
2023/02/20 04:23:12;;;;;;;;;61.00;50.00;;;;;7.90;63.45;102721.16;2001029;28;3609597;-74
2023/02/20 04:24:42;;;;;;;;;60.00;48.33;;;;;7.91;63.72;102722.88;2023592;28;3616277;-74
2023/02/20 04:26:13;;;;;;;;;63.00;49.67;;;;;7.89;63.58;102720.25;1988310;28;3606488;-74
2023/02/20 04:27:25;;;;;;;;;55.00;44.33;;;;;7.87;63.45;102717.63;1996450;27;3609597;-74
2023/02/20 04:28:37;;;;;;;;;62.00;47.67;;;;;7.87;64.15;102720.25;2020323;27;3625250;-74
2023/02/20 04:29:49;;;;;;;;;67.40;50.00;;;;;7.87;63.87;102719.38;2010290;28;3642898;-74
2023/02/20 04:31:01;;;;;;;;;62.33;48.00;;;;;7.87;63.99;102716.75;2004059;28;3609606;-74
2023/02/20 04:32:13;;;;;;;;;63.33;49.67;;;;;7.87;63.88;102715.03;2005386;27;3623133;-74
2023/02/20 04:33:25;;;;;;;;;57.00;46.00;;;;;7.86;64.00;102715.88;2014665;28;3607593;-74
2023/02/20 04:34:36;;;;;;;;;58.33;47.00;;;;;7.86;63.87;102715.88;2004703;28;3611689;-74
2023/02/20 04:35:48;;;;;;;;;60.33;48.00;;;;;7.86;64.21;102714.97;2015349;27;3621503;-74
2023/02/20 04:37:08;;;;;;;;;64.33;47.33;;;;;7.85;63.60;102713.25;2015901;27;3634636;-74
2023/02/20 04:38:20;;;;;;;;;60.67;47.33;;;;;7.84;63.74;102709.75;2001460;27;3616932;-74
2023/02/20 04:39:31;;;;;;;;;56.33;47.00;;;;;7.84;63.77;102714.09;2011753;27;3602295;-74
2023/02/20 04:40:43;;;;;;;;;58.33;47.00;;;;;7.83;63.91;102715.81;2008600;28;3620025;-74
2023/02/20 04:41:55;;;;;;;;;57.33;46.67;;;;;7.83;63.85;102717.56;2015793;27;3604416;-74
2023/02/20 04:43:08;;;;;;;;;56.67;47.67;;;;;7.82;63.81;102714.09;2039268;27;3603378;-74
2023/02/20 04:44:33;;;;;;;;;62.00;49.33;;;;;7.82;63.96;102715.81;2009282;28;3621094;-74
2023/02/20 04:45:44;;;;;;;;;57.00;46.00;;;;;7.82;63.84;102713.22;1992823;28;3590846;-74
2023/02/20 04:46:57;;;;;;;;;59.33;47.00;;;;;7.81;63.58;102712.31;2035774;28;3621094;-74
2023/02/20 04:48:09;;;;;;;;;61.33;47.00;;;;;7.81;63.51;102716.66;1992263;28;3633580;-74
2023/02/20 04:49:21;;;;;;;;;54.67;45.33;;;;;7.79;63.73;102719.28;2011966;28;3601616;-74
2023/02/20 04:50:35;;;;;;;;;56.00;45.80;;;;;7.80;64.27;102715.81;2014697;28;3607542;-74
2023/02/20 04:51:46;;;;;;;;;60.67;47.67;;;;;7.80;63.95;102720.16;1986434;28;3620337;-74
2023/02/20 04:52:59;;;;;;;;;50.33;41.00;;;;;7.80;64.14;102715.81;2018184;28;3601359;-74
2023/02/20 04:54:10;;;;;;;;;57.33;45.67;;;;;7.79;64.02;102716.66;1999129;28;3598166;-74
2023/02/20 04:55:23;;;;;;;;;58.67;44.67;;;;;7.79;64.09;102716.66;2014316;28;3604527;-74
2023/02/20 04:56:34;;;;;;;;;55.67;42.67;;;;;7.78;63.71;102717.50;1995040;27;3613772;-74
2023/02/20 04:57:47;;;;;;;;;54.00;44.00;;;;;7.78;63.66;102716.66;2009702;28;3609222;-74
2023/02/20 04:58:58;;;;;;;;;38.67;30.67;;;;;7.76;64.17;102711.38;1994959;28;3585656;-74
2023/02/20 05:00:11;;;;;;;;;58.33;44.67;;;;;7.77;63.94;102715.78;2032526;28;3618988;-74
2023/02/20 05:01:23;;;;;;;;;65.67;48.00;;;;;7.76;63.96;102716.63;1999502;27;3633569;-74
2023/02/20 05:02:37;;;;;;;;;56.00;44.33;;;;;7.75;63.66;102718.34;2010321;27;3588777;-74
2023/02/20 05:03:48;;;;;;;;;53.67;44.67;;;;;7.75;63.85;102718.34;1998752;28;3610654;-74
2023/02/20 05:05:00;;;;;;;;;55.33;45.00;;;;;7.74;63.99;102715.72;2014228;28;3598171;-74
2023/02/20 05:06:12;;;;;;;;;56.00;45.67;;;;;7.74;63.85;102720.97;2004344;28;3596069;-74
2023/02/20 05:07:25;;;;;;;;;55.67;42.33;;;;;7.73;64.05;102727.09;2030040;28;3604409;-74
2023/02/20 05:08:36;;;;;;;;;56.00;44.67;;;;;7.73;63.76;102716.63;1997309;28;3605460;-74
2023/02/20 05:09:48;;;;;;;;;55.00;43.00;;;;;7.73;63.80;102719.22;2015206;27;3617983;-74
2023/02/20 05:11:00;;;;;;;;;58.33;45.00;;;;;7.72;63.88;102720.06;2017178;27;3604441;-74
2023/02/20 05:12:12;;;;;;;;;53.67;43.00;;;;;7.71;64.21;102715.69;2014919;27;3611697;-74
2023/02/20 05:13:24;;;;;;;;;57.00;43.67;;;;;7.71;63.80;102713.97;2014979;28;3625602;-74
2023/02/20 05:14:36;;;;;;;;;57.00;44.67;;;;;7.71;64.27;102710.47;2015781;28;3606520;-74
2023/02/20 05:15:48;;;;;;;;;55.00;43.00;;;;;7.69;64.34;102713.06;2014890;27;3613901;-74
2023/02/20 05:17:00;;;;;;;;;58.67;43.00;;;;;7.70;64.07;102713.97;2014889;28;3639179;-74
2023/02/20 05:18:12;;;;;;;;;53.67;44.67;;;;;7.70;63.93;102719.19;2016749;27;3609653;-74
2023/02/20 05:19:24;;;;;;;;;53.00;44.00;;;;;7.69;64.19;102722.66;2014235;27;3582538;-74
2023/02/20 05:22:18;;;;;;;;;54.00;44.00;;;;;7.66;64.39;102715.66;1999201;28;3605458;-74
2023/02/20 05:23:30;;;;;;;;;56.00;43.67;;;;;7.67;64.24;102706.06;1999659;27;3622136;-74
2023/02/20 05:24:43;;;;;;;;;55.67;44.67;;;;;7.67;64.17;102711.28;2016009;27;3583577;-74
2023/02/20 05:25:54;;;;;;;;;52.33;42.67;;;;;7.64;64.07;102705.16;2023128;28;3573128;-74
2023/02/20 05:27:06;;;;;;;;;60.00;43.67;;;;;7.65;64.25;102714.75;2036760;27;3624235;-74
2023/02/20 05:28:18;;;;;;;;;61.67;44.33;;;;;7.64;64.33;102710.41;2009341;28;3625282;-74
2023/02/20 05:29:30;;;;;;;;;54.00;45.67;;;;;7.63;63.77;102706.00;2008776;27;3583593;-74
2023/02/20 05:30:42;;;;;;;;;58.00;44.00;;;;;7.64;64.23;102706.91;2033566;28;3616893;-74
2023/02/20 05:31:54;;;;;;;;;59.67;46.67;;;;;7.64;63.98;102710.41;2010004;28;3635634;-74
2023/02/20 05:33:06;;;;;;;;;33.60;26.60;;;;;7.62;64.09;102699.03;2019959;28;1832651;-74
2023/02/20 05:34:20;;;;;;;;;59.33;46.33;;;;;7.62;64.07;102699.03;2022558;28;3625305;-74
2023/02/20 05:35:32;;;;;;;;;54.33;44.33;;;;;7.62;63.85;102692.91;1993475;28;3607526;-74
2023/02/20 05:36:44;;;;;;;;;56.33;45.67;;;;;7.60;63.63;102698.16;1997929;28;3605427;-74
2023/02/20 05:37:55;;;;;;;;;56.00;44.00;;;;;7.60;64.22;102694.66;1998548;28;3623489;-74
2023/02/20 05:39:07;;;;;;;;;56.33;44.33;;;;;7.60;64.52;102697.28;2007899;28;3619006;-74
2023/02/20 05:40:19;;;;;;;;;54.33;42.67;;;;;7.59;64.07;102691.16;2006111;28;3596072;-74
2023/02/20 05:41:31;;;;;;;;;54.00;42.67;;;;;7.58;63.90;102694.63;2039183;28;3600265;-74
2023/02/20 05:42:43;;;;;;;;;55.33;45.33;;;;;7.58;63.87;102692.00;2032097;28;3608549;-74
2023/02/20 05:43:56;;;;;;;;;53.33;43.33;;;;;7.58;64.27;102689.38;2013646;28;3595038;-74
2023/02/20 05:45:08;;;;;;;;;52.33;43.67;;;;;7.58;63.74;102693.75;2016203;28;3599203;-74
2023/02/20 05:46:19;;;;;;;;;51.33;41.00;;;;;7.58;64.15;102691.16;2003552;28;3588804;-74
2023/02/20 05:47:31;;;;;;;;;52.67;42.00;;;;;7.56;64.07;102693.72;2014356;28;3609095;-74
2023/02/20 05:48:48;;;;;;;;;53.00;42.33;;;;;7.56;64.30;102692.84;2016748;28;3604421;-74
2023/02/20 05:50:00;;;;;;;;;54.67;42.67;;;;;7.55;64.28;102694.59;2023565;27;3601285;-74
2023/02/20 05:51:19;;;;;;;;;47.40;38.20;;;;;7.54;64.22;102690.22;2019041;27;3606461;-74
2023/02/20 05:52:31;;;;;;;;;48.67;39.00;;;;;7.53;64.20;102691.09;1999360;28;3592944;-74
2023/02/20 05:53:43;;;;;;;;;48.00;37.40;;;;;7.52;64.24;102694.56;2011173;28;3587687;-74
2023/02/20 05:54:55;;;;;;;;;48.67;37.67;;;;;7.51;63.94;102691.06;2040329;28;3610654;-74
2023/02/20 05:56:07;;;;;;;;;47.40;37.20;;;;;7.51;64.15;102695.41;2018561;27;3610317;-74